createdAt,value
2023-01-10T00:02:37.879Z,21.50
2023-01-10T00:17:40.601Z,14.60
2023-01-10T00:32:44.933Z,13.90
2023-01-10T00:47:48.637Z,10.50
2023-01-10T01:02:51.588Z,11.90
2023-01-10T01:17:55.091Z,11.80
2023-01-10T01:32:58.028Z,11.60
2023-01-10T01:48:26.781Z,12.30
2023-01-10T02:03:29.981Z,11.20
2023-01-10T02:18:33.038Z,11.00
2023-01-10T02:49:54.788Z,10.20
2023-01-10T03:05:48.747Z,9.50
2023-01-10T03:20:55.038Z,10.70
2023-01-10T03:36:30.578Z,9.50
2023-01-10T03:51:36.906Z,8.90
2023-01-10T04:06:54.250Z,8.00
2023-01-10T04:21:56.763Z,9.50
2023-01-10T04:36:59.516Z,8.20
2023-01-10T04:52:02.238Z,7.10
2023-01-10T05:07:04.817Z,8.50
2023-01-10T05:22:07.829Z,8.40
2023-01-10T05:37:10.528Z,9.40
2023-01-10T05:52:27.578Z,8.90
2023-01-10T06:07:31.857Z,9.60
2023-01-10T06:22:35.080Z,9.20
2023-01-10T06:37:52.187Z,9.80
2023-01-10T06:53:00.346Z,10.90
2023-01-10T07:08:03.205Z,7.50
2023-01-10T07:23:06.682Z,7.50
2023-01-10T07:38:09.675Z,7.10
2023-01-10T07:53:12.665Z,8.50
2023-01-10T08:08:16.859Z,7.80
2023-01-10T08:23:21.783Z,7.00
2023-01-10T08:38:39.306Z,7.80
2023-01-10T08:53:42.499Z,7.60
2023-01-10T09:08:45.301Z,7.60
2023-01-10T09:23:48.565Z,7.20
2023-01-10T09:38:51.383Z,7.90
2023-01-10T09:54:10.643Z,8.90
2023-01-10T10:09:28.306Z,9.80
2023-01-10T10:24:50.635Z,9.10
2023-01-10T10:40:17.068Z,8.50
2023-01-10T10:55:32.868Z,7.70
2023-01-10T11:10:35.960Z,7.90
2023-01-10T11:25:49.152Z,10.20
2023-01-10T11:41:02.123Z,11.00
2023-01-10T11:56:08.738Z,9.00
2023-01-10T12:11:17.799Z,9.10
2023-01-10T12:26:21.964Z,8.10
2023-01-10T12:42:00.955Z,8.30
2023-01-10T12:57:20.125Z,8.90
2023-01-10T13:12:46.432Z,10.00
2023-01-10T13:28:04.158Z,7.00
2023-01-10T13:43:58.579Z,5.60
2023-01-10T13:59:23.509Z,6.30
2023-01-10T14:14:34.406Z,5.50
2023-01-10T14:29:38.805Z,7.10
2023-01-10T14:44:50.984Z,10.00
2023-01-10T15:00:17.925Z,9.60
2023-01-10T15:15:32.743Z,14.10
2023-01-10T15:30:38.038Z,13.90
2023-01-10T15:45:42.480Z,15.60
2023-01-10T16:00:49.444Z,15.30
2023-01-10T16:15:56.815Z,15.70
2023-01-10T16:31:00.319Z,12.80
2023-01-10T16:46:05.111Z,11.90
2023-01-10T17:01:28.546Z,12.90
2023-01-10T17:16:32.443Z,12.40
2023-01-10T17:31:35.280Z,16.40
2023-01-10T17:46:39.537Z,16.60
2023-01-10T18:01:43.079Z,31.40
2023-01-10T18:16:46.528Z,34.10
2023-01-10T18:32:04.245Z,37.10
2023-01-10T18:47:08.137Z,25.00
2023-01-10T19:02:15.691Z,21.10
2023-01-10T19:17:19.487Z,27.30
2023-01-10T19:32:22.687Z,27.30
2023-01-10T19:47:25.497Z,15.20
2023-01-10T20:02:28.737Z,18.00
2023-01-10T20:17:32.850Z,14.60
2023-01-10T20:32:36.540Z,14.50
2023-01-10T20:47:39.551Z,13.30
2023-01-10T21:02:42.957Z,25.20
2023-01-10T21:17:49.076Z,26.00
2023-01-10T21:33:12.975Z,15.60
2023-01-10T21:48:18.501Z,13.20
2023-01-10T22:03:21.552Z,14.60
2023-01-10T22:18:24.830Z,12.90
2023-01-10T22:33:31.140Z,11.10
2023-01-10T22:48:38.260Z,13.00
2023-01-10T23:18:59.277Z,13.40
2023-01-10T23:34:02.634Z,14.30
2023-01-10T23:49:05.872Z,12.20
